Time;durP1;ratioP1;P1;durP2;ratioP2;P2;SDS_P1;SDS_P2;PMS_P1;PMS_P2;Temp;Humidity;BMP_temperature;BMP_pressure;BME280_temperature;BME280_humidity;BME280_pressure;Samples;Min_cycle;Max_cycle;Signal;HPM_P1;HPM_P2
2023/01/21 00:02:14;;;;;;;30.27;20.87;;;1.40;99.90;;;;;;5016098;28;20434;-87
2023/01/21 00:04:54;;;;;;;30.20;20.63;;;1.20;99.90;;;;;;5000095;28;20434;-87
2023/01/21 00:07:55;;;;;;;27.97;19.53;;;1.40;99.90;;;;;;5016653;28;20505;-87
2023/01/21 00:13:53;;;;;;;28.63;20.03;;;1.20;99.90;;;;;;5016075;28;20501;-86
2023/01/21 00:19:52;;;;;;;30.70;21.30;;;1.30;99.90;;;;;;5016000;28;20478;-87
2023/01/21 00:22:59;;;;;;;37.53;21.60;;;1.30;99.90;;;;;;4998929;28;20434;-87
2023/01/21 00:29:00;;;;;;;30.87;19.37;;;1.20;99.90;;;;;;5014923;28;20493;-87
2023/01/21 00:37:30;;;;;;;33.23;20.47;;;1.30;99.90;;;;;;5017125;28;20446;-87
2023/01/21 00:43:13;;;;;;;31.47;19.60;;;1.20;99.90;;;;;;5014312;28;20442;-87
2023/01/21 01:04:13;;;;;;;38.73;22.43;;;0.90;99.90;;;;;;5012988;28;20454;-87
2023/01/21 01:07:09;;;;;;;47.23;24.97;;;1.10;99.90;;;;;;5016566;28;20446;-87
2023/01/21 01:10:10;;;;;;;39.07;22.30;;;1.00;99.90;;;;;;5016560;28;20449;-87
2023/01/21 01:13:45;;;;;;;35.83;22.87;;;0.90;99.90;;;;;;5015104;28;20485;-87
2023/01/21 01:25:11;;;;;;;48.63;25.43;;;0.70;99.90;;;;;;5015153;28;20483;-87
2023/01/21 01:27:45;;;;;;;46.27;24.27;;;0.60;99.90;;;;;;5017250;28;20492;-86
2023/01/21 01:34:07;;;;;;;51.03;27.33;;;0.80;99.90;;;;;;5016907;28;20206;-87
2023/01/21 01:37:10;;;;;;;53.10;26.47;;;0.80;99.90;;;;;;5017205;28;20446;-87
2023/01/21 01:39:51;;;;;;;48.50;24.97;;;0.80;99.90;;;;;;5018007;28;20429;-88
2023/01/21 01:42:59;;;;;;;52.33;26.30;;;0.70;99.90;;;;;;5014984;28;20457;-87
2023/01/21 01:52:45;;;;;;;47.60;25.17;;;0.60;99.90;;;;;;5015912;28;20442;-87
2023/01/21 01:59:33;;;;;;;49.13;25.97;;;0.80;99.90;;;;;;5015174;28;20689;-87
2023/01/21 02:06:09;;;;;;;53.43;28.73;;;0.60;99.90;;;;;;5018968;28;20191;-87
2023/01/21 04:10:24;;;;;;;49.53;25.70;;;0.50;99.90;;;;;;5086645;28;20442;-88
2023/01/21 04:24:07;;;;;;;52.50;28.10;;;0.30;99.90;;;;;;5016291;28;21115;-87
2023/01/21 05:37:53;;;;;;;58.13;28.07;;;0.00;99.90;;;;;;5057799;28;20468;-86
2023/01/21 05:40:44;;;;;;;57.13;28.23;;;0.00;99.90;;;;;;5058760;28;20444;-86
2023/01/21 07:14:02;;;;;;;60.50;29.43;;;-0.40;99.90;;;;;;5548121;22;20839;-84
2023/01/21 07:27:37;;;;;;;61.97;28.87;;;-0.40;99.90;;;;;;5035418;28;20418;-85
2023/01/21 07:30:39;;;;;;;61.67;28.47;;;-0.50;99.90;;;;;;5037724;28;20481;-84
2023/01/21 08:08:25;;;;;;;62.00;29.97;;;-0.40;99.90;;;;;;4921872;29;20466;-85
2023/01/21 08:18:05;;;;;;;60.37;30.47;;;-0.20;99.90;;;;;;4921471;29;20458;-83
2023/01/21 08:57:50;;;;;;;57.83;29.43;;;0.10;99.90;;;;;;4950804;29;20469;-85
2023/01/21 09:07:42;;;;;;;58.00;28.67;;;0.10;99.90;;;;;;4957457;28;20445;-85
2023/01/21 10:41:03;;;;;;;40.57;22.77;;;1.70;99.90;;;;;;5066182;28;20459;-82
2023/01/21 10:44:20;;;;;;;42.90;23.27;;;1.90;99.90;;;;;;5067042;28;20466;-83
2023/01/21 10:50:54;;;;;;;36.83;21.43;;;2.20;99.90;;;;;;5066460;28;20487;-85
2023/01/21 11:09:24;;;;;;;33.43;20.40;;;1.90;99.90;;;;;;5065839;28;20470;-84
2023/01/21 11:13:00;;;;;;;36.53;22.07;;;2.00;99.90;;;;;;5073549;28;20467;-85
2023/01/21 11:40:16;;;;;;;40.10;23.47;;;2.30;99.90;;;;;;5549635;22;20509;-80
2023/01/21 12:14:20;;;;;;;32.83;19.07;;;2.60;99.90;;;;;;5035605;28;20417;-86
2023/01/21 15:46:52;;;;;;;47.63;25.17;;;2.00;99.90;;;;;;5480603;23;20510;-78
2023/01/21 15:49:34;;;;;;;43.30;24.70;;;2.00;99.90;;;;;;4989108;28;20489;-79
2023/01/21 15:52:14;;;;;;;42.17;24.30;;;1.70;99.90;;;;;;4988299;28;20446;-80
2023/01/21 15:54:51;;;;;;;43.63;22.47;;;1.50;99.90;;;;;;4987990;28;20443;-80
2023/01/21 15:57:30;;;;;;;45.43;23.53;;;1.30;99.90;;;;;;4987521;28;20438;-79
2023/01/21 16:00:22;;;;;;;41.77;22.63;;;1.20;99.90;;;;;;4985763;28;20454;-80
2023/01/21 16:02:54;;;;;;;45.60;23.13;;;1.30;99.90;;;;;;4986346;28;20443;-80
2023/01/21 16:05:36;;;;;;;46.83;23.87;;;1.50;99.90;;;;;;4986020;28;20435;-79
2023/01/21 16:08:14;;;;;;;44.53;23.37;;;1.40;99.90;;;;;;4980662;28;20462;-79
2023/01/21 16:10:51;;;;;;;43.20;24.40;;;1.40;99.90;;;;;;4981432;28;20495;-80
2023/01/21 16:13:26;;;;;;;54.17;25.57;;;1.40;99.90;;;;;;4983045;28;20443;-81
2023/01/21 16:16:04;;;;;;;47.23;25.43;;;1.40;99.90;;;;;;4981994;28;20462;-81
2023/01/21 16:18:44;;;;;;;50.07;24.73;;;1.20;99.90;;;;;;4981977;28;20436;-80
2023/01/21 16:21:12;;;;;;;47.43;24.87;;;1.20;99.90;;;;;;4982465;28;20441;-80
2023/01/21 16:23:44;;;;;;;45.50;25.10;;;1.00;99.90;;;;;;4981343;28;20451;-80
2023/01/21 16:26:23;;;;;;;48.37;26.07;;;1.00;99.90;;;;;;4980641;28;20462;-80
2023/01/21 16:28:50;;;;;;;51.45;28.58;;;1.00;99.90;;;;;;4980141;28;20916;-79
2023/01/21 16:31:17;;;;;;;49.93;25.63;;;1.20;99.90;;;;;;4983253;28;20205;-81
2023/01/21 16:33:45;;;;;;;50.70;26.13;;;1.10;99.90;;;;;;4983083;28;20946;-81
2023/01/21 16:36:13;;;;;;;48.50;25.10;;;1.20;99.90;;;;;;4982695;28;20903;-81
2023/01/21 16:38:42;;;;;;;54.50;26.43;;;1.00;99.90;;;;;;4983168;28;20435;-81
2023/01/21 16:41:27;;;;;;;49.40;26.33;;;1.10;99.90;;;;;;4982393;28;20458;-80
2023/01/21 16:43:58;;;;;;;50.57;26.00;;;1.00;99.90;;;;;;4983169;28;20435;-81
2023/01/21 16:46:27;;;;;;;51.93;25.83;;;1.10;99.90;;;;;;4983063;28;20466;-80
2023/01/21 16:48:57;;;;;;;51.80;26.17;;;1.10;99.90;;;;;;4984048;28;20447;-78
2023/01/21 16:51:28;;;;;;;54.17;26.67;;;1.10;99.90;;;;;;4983682;28;20458;-80
2023/01/21 16:54:21;;;;;;;53.27;27.17;;;1.20;99.90;;;;;;4981499;28;20486;-80
2023/01/21 16:56:49;;;;;;;68.03;27.67;;;1.20;99.90;;;;;;4974635;28;20458;-79
2023/01/21 16:59:19;;;;;;;53.70;27.13;;;1.20;99.90;;;;;;4982714;28;20439;-80
2023/01/21 17:01:47;;;;;;;55.30;28.60;;;1.20;99.90;;;;;;4983296;28;20455;-80
2023/01/21 17:04:16;;;;;;;52.90;27.80;;;1.00;99.90;;;;;;4987382;28;20432;-80
2023/01/21 17:06:45;;;;;;;59.17;28.10;;;1.20;99.90;;;;;;4977355;28;20922;-80
2023/01/21 17:09:24;;;;;;;53.30;26.90;;;1.10;99.90;;;;;;4976584;28;20447;-80
2023/01/21 17:11:51;;;;;;;52.23;27.20;;;1.00;99.90;;;;;;4976240;28;20463;-79
2023/01/21 17:14:25;;;;;;;53.43;28.47;;;1.00;99.90;;;;;;4976598;28;20449;-80
2023/01/21 17:16:53;;;;;;;52.17;27.43;;;1.00;99.90;;;;;;4976366;28;20454;-79
2023/01/21 17:19:25;;;;;;;51.40;26.80;;;1.20;99.90;;;;;;4976520;28;20438;-79
2023/01/21 17:21:55;;;;;;;56.57;27.53;;;1.20;99.90;;;;;;4976197;28;20435;-80
2023/01/21 17:24:26;;;;;;;55.90;28.60;;;1.00;99.90;;;;;;4976545;28;20439;-79
2023/01/21 17:26:55;;;;;;;56.77;27.83;;;1.00;99.90;;;;;;4976391;28;20446;-79
2023/01/21 17:29:27;;;;;;;54.57;28.53;;;1.00;99.90;;;;;;4975753;28;20439;-80
2023/01/21 17:31:57;;;;;;;59.13;29.67;;;1.20;99.90;;;;;;4979008;28;20447;-80
2023/01/21 17:34:27;;;;;;;58.70;29.87;;;1.30;99.90;;;;;;4979993;28;20436;-80
2023/01/21 17:36:55;;;;;;;55.70;28.90;;;1.20;99.90;;;;;;4980164;28;20435;-80
2023/01/21 17:39:59;;;;;;;55.70;30.17;;;0.90;99.90;;;;;;4980106;28;20450;-80
2023/01/21 17:45:07;;;;;;;63.90;30.07;;;1.00;99.90;;;;;;5012076;23;20496;-86
2023/01/21 17:47:40;;;;;;;60.77;29.63;;;1.20;99.90;;;;;;4963486;29;20448;-86
2023/01/21 17:50:22;;;;;;;57.07;28.97;;;1.00;99.90;;;;;;4963127;28;20484;-86
2023/01/21 17:52:51;;;;;;;59.80;28.27;;;1.00;99.90;;;;;;4966616;28;20547;-85
2023/01/21 17:55:32;;;;;;;58.30;28.97;;;1.10;99.90;;;;;;4977848;29;20511;-86
2023/01/21 17:58:04;;;;;;;58.70;29.23;;;1.20;99.90;;;;;;4963925;29;20456;-86
2023/01/21 18:16:17;;;;;;;60.93;28.93;;;0.80;99.90;;;;;;4991659;28;20486;-83
2023/01/21 18:18:44;;;;;;;60.07;29.93;;;0.90;99.90;;;;;;4990990;28;20479;-81
2023/01/21 18:21:19;;;;;;;64.67;30.90;;;0.90;99.90;;;;;;4991782;28;20455;-82
2023/01/21 18:24:01;;;;;;;62.17;31.60;;;1.00;99.90;;;;;;4998441;28;20430;-83
2023/01/21 18:26:32;;;;;;;64.40;32.60;;;1.00;99.90;;;;;;4998601;28;20529;-82
2023/01/21 18:32:27;;;;;;;64.70;28.83;;;1.00;99.90;;;;;;4992538;28;20465;-82
2023/01/21 18:34:55;;;;;;;60.57;29.30;;;0.90;99.90;;;;;;4991776;28;20457;-82
2023/01/21 18:37:22;;;;;;;61.73;28.80;;;1.00;99.90;;;;;;4991214;28;20502;-83
2023/01/21 18:39:51;;;;;;;59.93;29.73;;;1.00;99.90;;;;;;4990153;28;20530;-82
2023/01/21 18:42:18;;;;;;;61.50;29.63;;;0.90;99.90;;;;;;4989964;28;20546;-82
2023/01/21 18:44:47;;;;;;;54.33;28.13;;;1.00;99.90;;;;;;4991101;28;20465;-83
2023/01/21 18:47:17;;;;;;;55.80;28.93;;;1.00;99.90;;;;;;4992181;28;20550;-83
2023/01/21 18:49:49;;;;;;;53.50;28.00;;;1.20;99.90;;;;;;4992635;28;21026;-82
2023/01/21 18:52:25;;;;;;;60.50;29.13;;;1.20;99.90;;;;;;4991746;28;20447;-83
2023/01/21 18:58:20;;;;;;;51.73;26.83;;;1.10;99.90;;;;;;4992316;23;20455;-81
2023/01/21 19:00:51;;;;;;;55.67;27.83;;;0.90;99.90;;;;;;4978447;28;20479;-83
2023/01/21 19:03:25;;;;;;;56.50;27.20;;;0.90;99.90;;;;;;4978580;29;20471;-83
2023/01/21 19:06:00;;;;;;;53.00;27.20;;;0.70;99.90;;;;;;4978666;28;20444;-83
2023/01/21 19:08:38;;;;;;;51.67;26.87;;;0.80;99.90;;;;;;4977269;28;20476;-83
2023/01/21 19:11:14;;;;;;;53.53;26.57;;;0.80;99.90;;;;;;4976502;28;21017;-82
2023/01/21 19:13:50;;;;;;;52.30;25.97;;;0.80;99.90;;;;;;4977817;28;20479;-83
2023/01/21 19:16:23;;;;;;;44.67;24.40;;;0.80;99.90;;;;;;4977695;29;20436;-83
2023/01/21 19:18:58;;;;;;;52.97;25.73;;;0.70;99.90;;;;;;4977353;28;20476;-83
2023/01/21 19:21:26;;;;;;;53.03;26.63;;;0.80;99.90;;;;;;4977870;28;20443;-84
2023/01/21 19:23:55;;;;;;;55.07;27.37;;;0.70;99.90;;;;;;4977350;28;20471;-84
2023/01/21 19:26:27;;;;;;;54.00;25.30;;;0.80;99.90;;;;;;4977380;28;20479;-83
2023/01/21 19:28:57;;;;;;;52.47;26.03;;;0.60;99.90;;;;;;4977493;28;20456;-84
2023/01/21 19:31:42;;;;;;;48.53;25.60;;;0.70;99.90;;;;;;4978229;28;20500;-83
2023/01/21 19:34:11;;;;;;;53.30;26.33;;;0.70;99.90;;;;;;4978610;28;20516;-86
2023/01/21 19:37:07;;;;;;;53.30;26.43;;;0.70;99.90;;;;;;4978312;28;20432;-84
2023/01/21 19:39:50;;;;;;;54.47;27.43;;;0.60;99.90;;;;;;4978250;28;20454;-84
2023/01/21 19:42:19;;;;;;;53.20;26.40;;;0.60;99.90;;;;;;4978234;28;20444;-84
2023/01/21 19:45:01;;;;;;;51.70;26.87;;;0.70;99.90;;;;;;4977129;28;20459;-83
2023/01/21 19:47:40;;;;;;;49.37;25.40;;;0.70;99.90;;;;;;4977437;28;20541;-84
2023/01/21 19:50:11;;;;;;;53.77;25.70;;;0.70;99.90;;;;;;4977151;28;20506;-84
2023/01/21 19:52:49;;;;;;;59.87;27.43;;;0.60;99.90;;;;;;4977775;28;20456;-84
2023/01/21 19:55:24;;;;;;;53.77;26.07;;;0.70;99.90;;;;;;4977048;28;20456;-84
2023/01/21 19:58:00;;;;;;;55.73;26.37;;;0.70;99.90;;;;;;4977229;28;20458;-83
2023/01/21 20:00:38;;;;;;;53.07;27.00;;;0.80;99.90;;;;;;4978130;28;20456;-84
2023/01/21 20:03:11;;;;;;;52.93;28.40;;;0.80;99.90;;;;;;4977252;29;20423;-84
2023/01/21 20:06:01;;;;;;;51.33;27.13;;;0.70;99.90;;;;;;4978107;28;20452;-83
2023/01/21 20:08:52;;;;;;;55.03;26.57;;;0.80;99.90;;;;;;4976971;28;20468;-83
2023/01/21 20:11:20;;;;;;;53.53;25.63;;;0.80;99.90;;;;;;4977195;28;20484;-83
2023/01/21 20:13:49;;;;;;;61.17;28.27;;;0.90;99.90;;;;;;4977149;28;20483;-83
2023/01/21 20:16:33;;;;;;;53.97;26.77;;;0.80;99.90;;;;;;4977688;28;20467;-83
2023/01/21 20:19:10;;;;;;;55.47;26.63;;;0.70;99.90;;;;;;4977517;28;20471;-83
2023/01/21 20:21:52;;;;;;;52.57;25.23;;;0.80;99.90;;;;;;4977083;28;20440;-83
2023/01/21 20:24:21;;;;;;;53.57;26.20;;;0.90;99.90;;;;;;4977491;28;20443;-83
2023/01/21 20:26:53;;;;;;;56.30;26.33;;;0.90;99.90;;;;;;4977244;28;20452;-84
2023/01/21 20:29:26;;;;;;;59.80;27.20;;;0.90;99.90;;;;;;4977520;28;20455;-83
2023/01/21 20:31:59;;;;;;;55.97;27.33;;;0.80;99.90;;;;;;4976304;29;20483;-84
2023/01/21 20:34:31;;;;;;;59.93;26.97;;;1.00;99.90;;;;;;4977610;28;20433;-84
2023/01/21 20:37:00;;;;;;;55.63;26.80;;;0.90;99.90;;;;;;4977043;28;20523;-83
2023/01/21 20:39:34;;;;;;;59.10;27.73;;;0.90;99.90;;;;;;4977085;29;20424;-84
2023/01/21 20:42:07;;;;;;;58.27;27.97;;;0.80;99.90;;;;;;4977837;28;20455;-84
2023/01/21 20:44:40;;;;;;;49.10;25.53;;;0.80;99.90;;;;;;4978391;28;20486;-84
2023/01/21 20:47:11;;;;;;;58.23;27.03;;;0.90;99.90;;;;;;4978432;28;20524;-84
2023/01/21 20:49:45;;;;;;;61.40;27.93;;;0.80;99.90;;;;;;4977420;28;20488;-84
2023/01/21 20:52:22;;;;;;;56.43;27.97;;;0.80;99.90;;;;;;4977272;28;20471;-84
2023/01/21 20:54:54;;;;;;;63.88;33.60;;;0.90;99.90;;;;;;4977446;28;20469;-83
2023/01/21 20:57:23;;;;;;;56.20;29.10;;;1.00;99.90;;;;;;4977394;28;20170;-84
2023/01/21 20:59:54;;;;;;;58.63;28.63;;;1.10;99.90;;;;;;4977211;29;20447;-83
2023/01/21 21:02:26;;;;;;;55.37;27.67;;;1.20;99.90;;;;;;4977658;28;20531;-84
2023/01/21 21:04:56;;;;;;;64.47;28.40;;;1.20;99.90;;;;;;4977807;28;20467;-83
2023/01/21 21:07:32;;;;;;;57.47;28.70;;;1.10;99.90;;;;;;4977180;28;20462;-84
2023/01/21 21:10:09;;;;;;;55.97;27.63;;;1.10;99.90;;;;;;4977230;28;20444;-82
2023/01/21 21:13:02;;;;;;;59.07;28.00;;;1.10;99.90;;;;;;4978563;28;20470;-82
2023/01/21 21:15:49;;;;;;;56.47;27.63;;;1.10;99.90;;;;;;4978905;28;20444;-83
2023/01/21 21:18:21;;;;;;;51.50;26.50;;;1.20;99.90;;;;;;4961278;28;20429;-82
2023/01/21 21:24:32;;;;;;;63.72;33.30;;;1.20;99.90;;;;;;4960689;28;20422;-81
2023/01/21 21:30:48;;;;;;;54.00;27.65;;;1.10;99.90;;;;;;4949872;28;20456;-82
2023/01/21 21:33:51;;;;;;;50.13;26.60;;;1.10;99.90;;;;;;4962275;28;20453;-84
2023/01/21 21:48:45;;;;;;;54.67;26.83;;;1.00;99.90;;;;;;4943477;28;20454;-84
2023/01/21 21:51:34;;;;;;;54.77;26.73;;;1.00;99.90;;;;;;4979060;28;20515;-83
2023/01/21 21:54:40;;;;;;;67.70;36.35;;;1.00;99.90;;;;;;4971625;28;20476;-84
2023/01/21 22:04:11;;;;;;;58.17;26.23;;;0.90;99.90;;;;;;4979629;28;20466;-83
2023/01/21 22:10:17;;;;;;;56.93;25.43;;;0.80;99.90;;;;;;4960068;28;20546;-84
2023/01/21 22:16:40;;;;;;;60.20;26.13;;;0.80;99.90;;;;;;4978397;28;20423;-82
2023/01/21 22:22:38;;;;;;;58.57;26.93;;;0.70;99.90;;;;;;4982457;28;20459;-82
2023/01/21 22:34:45;;;;;;;62.30;29.53;;;0.50;99.90;;;;;;4962642;28;20464;-84
2023/01/21 22:37:25;;;;;;;72.73;29.87;;;0.20;99.90;;;;;;4963374;28;20496;-84
2023/01/21 22:46:09;;;;;;;66.10;28.70;;;-0.20;99.90;;;;;;5002098;28;20431;-83
2023/01/21 22:48:57;;;;;;;65.43;28.93;;;-0.10;99.90;;;;;;5002025;28;20449;-83
2023/01/21 22:51:34;;;;;;;70.17;29.70;;;-0.20;99.90;;;;;;4999844;28;20463;-79
2023/01/21 22:54:39;;;;;;;89.65;45.22;;;-0.50;99.90;;;;;;4995879;28;20467;-79
2023/01/21 22:59:59;;;;;;;71.37;30.07;;;-0.40;99.90;;;;;;4981337;28;20428;-81
2023/01/21 23:02:29;;;;;;;67.73;29.47;;;-0.50;99.90;;;;;;4980912;28;20456;-81
2023/01/21 23:05:17;;;;;;;68.53;28.53;;;-0.40;99.90;;;;;;4981589;28;20436;-81
2023/01/21 23:08:35;;;;;;;75.37;29.50;;;-0.30;99.90;;;;;;4980577;28;20492;-80
2023/01/21 23:11:10;;;;;;;68.97;29.10;;;-0.30;99.90;;;;;;4981668;28;20536;-80
2023/01/21 23:13:45;;;;;;;75.10;30.70;;;-0.40;99.90;;;;;;4981474;28;20467;-81
2023/01/21 23:16:22;;;;;;;66.33;27.93;;;-0.20;99.90;;;;;;4968748;28;20443;-81
2023/01/21 23:18:54;;;;;;;67.77;28.57;;;-0.20;99.90;;;;;;4978797;28;20444;-80
2023/01/21 23:21:31;;;;;;;63.67;27.60;;;-0.30;99.90;;;;;;4981659;28;20479;-81
2023/01/21 23:24:10;;;;;;;69.53;29.70;;;-0.20;99.90;;;;;;4982132;28;20465;-83
2023/01/21 23:37:33;;;;;;;62.53;28.23;;;-0.40;99.90;;;;;;5512361;23;20487;-93
